createdAt,value
2022-09-23T00:01:58.066Z,101480.50
2022-09-23T00:04:00.593Z,101483.63
2022-09-23T00:06:05.533Z,101475.72
2022-09-23T00:08:08.969Z,101472.56
2022-09-23T00:10:11.251Z,101475.41
2022-09-23T00:12:12.997Z,101467.53
2022-09-23T00:14:15.134Z,101477.59
2022-09-23T00:16:26.177Z,101466.00
2022-09-23T00:18:27.885Z,101467.19
2022-09-23T00:20:29.851Z,101476.69
2022-09-23T00:22:31.778Z,101465.06
2022-09-23T00:24:33.615Z,101465.69
2022-09-23T00:26:35.593Z,101469.50
2022-09-23T00:28:37.631Z,101467.78
2022-09-23T00:30:41.125Z,101466.25
2022-09-23T00:32:43.059Z,101468.88
2022-09-23T00:34:44.966Z,101456.72
2022-09-23T00:36:46.661Z,101451.47
2022-09-23T00:38:48.671Z,101461.06
2022-09-23T00:40:50.543Z,101459.72
2022-09-23T00:42:52.321Z,101463.69
2022-09-23T00:44:59.830Z,101457.72
2022-09-23T00:47:01.688Z,101458.09
2022-09-23T00:49:11.095Z,101464.06
2022-09-23T00:51:19.889Z,101454.34
2022-09-23T00:53:25.346Z,101453.50
2022-09-23T00:55:30.678Z,101450.00
2022-09-23T00:57:33.083Z,101453.38
2022-09-23T00:59:35.812Z,101446.75
2022-09-23T01:01:39.017Z,101457.16
2022-09-23T01:03:44.673Z,101461.91
2022-09-23T01:05:47.117Z,101455.28
2022-09-23T01:07:50.253Z,101438.06
2022-09-23T01:09:52.100Z,101457.88
2022-09-23T01:12:00.281Z,101441.94
2022-09-23T01:14:23.334Z,101450.91
2022-09-23T01:16:54.958Z,101456.09
2022-09-23T01:19:15.466Z,101453.78
2022-09-23T01:21:46.588Z,101458.22
2022-09-23T01:24:16.408Z,101456.66
2022-09-23T01:26:36.736Z,101455.69
2022-09-23T01:29:16.994Z,101458.53
2022-09-23T01:31:32.254Z,101461.38
2022-09-23T01:33:50.471Z,101463.75
2022-09-23T01:36:23.428Z,101463.25
2022-09-23T01:38:50.258Z,101466.06
2022-09-23T01:41:13.235Z,101468.84
2022-09-23T01:43:28.071Z,101455.66
2022-09-23T01:45:39.585Z,101461.03
2022-09-23T01:48:06.265Z,101463.56
2022-09-23T01:50:18.438Z,101461.59
2022-09-23T01:52:31.747Z,101464.84
2022-09-23T01:54:42.360Z,101462.63
2022-09-23T01:56:52.923Z,101458.22
2022-09-23T01:59:08.886Z,101458.31
2022-09-23T02:01:17.460Z,101459.06
2022-09-23T02:03:28.755Z,101462.00
2022-09-23T02:05:47.333Z,101455.66
2022-09-23T02:07:57.392Z,101461.16
2022-09-23T02:10:19.134Z,101458.84
2022-09-23T02:12:25.190Z,101443.78
2022-09-23T02:14:36.600Z,101449.16
2022-09-23T02:16:44.960Z,101458.22
2022-09-23T02:18:53.475Z,101457.06
2022-09-23T02:21:02.825Z,101453.03
2022-09-23T02:23:25.545Z,101457.03
2022-09-23T02:25:40.045Z,101455.00
2022-09-23T02:28:04.547Z,101458.63
2022-09-23T02:30:22.910Z,101454.41
2022-09-23T02:32:43.759Z,101448.72
2022-09-23T02:35:17.632Z,101445.22
2022-09-23T02:37:44.753Z,101447.53
2022-09-23T02:40:28.038Z,101452.69
2022-09-23T02:43:02.033Z,101453.06
2022-09-23T02:45:03.913Z,101460.34
2022-09-23T02:47:05.736Z,101455.19
2022-09-23T02:49:26.996Z,101454.00
2022-09-23T02:51:28.874Z,101452.63
2022-09-23T02:53:32.320Z,101450.84
2022-09-23T02:55:34.286Z,101456.03
2022-09-23T02:57:36.039Z,101454.53
2022-09-23T02:59:38.898Z,101456.63
2022-09-23T03:02:02.042Z,101454.66
2022-09-23T03:04:44.972Z,101448.00
2022-09-23T03:06:59.282Z,101450.16
2022-09-23T03:09:17.495Z,101445.19
2022-09-23T03:11:20.104Z,101453.91
2022-09-23T03:13:46.466Z,101448.38
2022-09-23T03:16:00.876Z,101458.16
2022-09-23T03:18:31.001Z,101447.22
2022-09-23T03:20:44.284Z,101447.00
2022-09-23T03:23:00.349Z,101443.91
2022-09-23T03:25:09.173Z,101446.38
2022-09-23T03:27:15.995Z,101447.94
2022-09-23T03:29:20.060Z,101454.28
2022-09-23T03:31:21.885Z,101453.25
2022-09-23T03:33:28.674Z,101440.09
2022-09-23T03:35:44.536Z,101457.03
2022-09-23T03:38:04.134Z,101452.25
2022-09-23T03:40:24.199Z,101453.81
2022-09-23T03:42:30.848Z,101449.50
2022-09-23T03:44:35.674Z,101454.75
2022-09-23T03:46:37.542Z,101457.06
2022-09-23T03:48:39.494Z,101451.47
2022-09-23T03:50:41.233Z,101448.41
2022-09-23T03:52:43.960Z,101455.41
2022-09-23T03:54:46.487Z,101443.66
2022-09-23T03:56:48.502Z,101438.84
2022-09-23T03:58:50.187Z,101420.91
2022-09-23T04:00:52.047Z,101430.66
2022-09-23T04:02:53.760Z,101433.09
2022-09-23T04:04:55.467Z,101430.66
2022-09-23T04:06:57.470Z,101431.59
2022-09-23T04:08:59.180Z,101426.34
2022-09-23T04:11:02.293Z,101398.22
2022-09-23T04:13:04.017Z,101427.31
2022-09-23T04:15:06.379Z,101428.50
2022-09-23T04:17:08.099Z,101427.13
2022-09-23T04:19:13.971Z,101421.22
2022-09-23T04:21:16.195Z,101423.00
2022-09-23T04:23:17.907Z,101423.66
2022-09-23T04:25:19.662Z,101425.88
2022-09-23T04:27:21.402Z,101416.69
2022-09-23T04:29:24.198Z,101423.13
2022-09-23T04:31:26.523Z,101425.66
2022-09-23T04:33:28.304Z,101421.19
2022-09-23T04:35:30.027Z,101422.03
2022-09-23T04:37:31.799Z,101425.28
2022-09-23T04:39:33.514Z,101436.31
2022-09-23T04:41:35.237Z,101426.22
2022-09-23T04:43:37.070Z,101430.53
2022-09-23T04:45:38.882Z,101417.88
2022-09-23T04:47:40.618Z,101433.16
2022-09-23T04:49:42.522Z,101428.22
2022-09-23T04:51:44.245Z,101425.50
2022-09-23T04:53:47.841Z,101429.94
2022-09-23T04:55:49.562Z,101427.50
2022-09-23T04:57:51.245Z,101428.25
2022-09-23T04:59:52.955Z,101426.03
2022-09-23T05:01:55.042Z,101421.84
2022-09-23T05:04:01.801Z,101416.66
2022-09-23T05:06:03.815Z,101429.50
2022-09-23T05:08:05.547Z,101425.84
2022-09-23T05:10:07.948Z,101425.50
2022-09-23T05:12:09.790Z,101435.44
2022-09-23T05:14:11.689Z,101425.88
2022-09-23T05:16:13.507Z,101431.13
2022-09-23T05:18:17.902Z,101437.78
2022-09-23T05:20:22.538Z,101439.44
2022-09-23T05:22:24.907Z,101438.19
2022-09-23T05:24:26.621Z,101434.38
2022-09-23T05:26:31.266Z,101436.50
2022-09-23T05:28:34.205Z,101441.69
2022-09-23T05:30:35.951Z,101443.47
2022-09-23T05:32:37.981Z,101442.19
2022-09-23T05:34:39.722Z,101443.03
2022-09-23T05:36:41.608Z,101438.00
2022-09-23T05:38:43.817Z,101444.28
2022-09-23T05:40:45.533Z,101427.97
2022-09-23T05:42:47.374Z,101434.63
2022-09-23T05:44:49.150Z,101441.66
2022-09-23T05:46:50.908Z,101443.13
2022-09-23T05:48:52.895Z,101447.66
2022-09-23T05:50:54.815Z,101449.47
2022-09-23T05:52:56.529Z,101452.72
2022-09-23T05:54:58.452Z,101449.88
2022-09-23T05:57:02.739Z,101454.19
2022-09-23T05:59:06.850Z,101451.75
2022-09-23T06:01:13.775Z,101444.13
2022-09-23T06:03:18.071Z,101446.78
2022-09-23T06:05:19.872Z,101446.72
2022-09-23T06:07:21.740Z,101441.44
2022-09-23T06:09:23.497Z,101440.56
2022-09-23T06:11:25.403Z,101439.09
2022-09-23T06:13:27.154Z,101440.03
2022-09-23T06:15:28.854Z,101442.13
2022-09-23T06:17:30.603Z,101439.72
2022-09-23T06:19:32.509Z,101438.91
2022-09-23T06:21:39.006Z,101436.69
2022-09-23T06:23:42.131Z,101438.38
2022-09-23T06:25:44.097Z,101438.66
2022-09-23T06:27:56.008Z,101438.63
2022-09-23T06:29:57.711Z,101440.09
2022-09-23T06:31:59.863Z,101449.31
2022-09-23T06:34:11.094Z,101442.09
2022-09-23T06:36:23.035Z,101447.16
2022-09-23T06:38:33.404Z,101452.72
2022-09-23T06:40:35.323Z,101445.94
2022-09-23T06:42:37.114Z,101453.56
2022-09-23T06:44:38.927Z,101446.13
2022-09-23T06:46:41.006Z,101451.84
2022-09-23T06:48:46.162Z,101449.38
2022-09-23T06:50:48.374Z,101441.59
2022-09-23T06:52:57.102Z,101446.88
2022-09-23T06:54:58.904Z,101444.53
2022-09-23T06:57:00.827Z,101450.56
2022-09-23T06:59:02.627Z,101447.13
2022-09-23T07:01:06.642Z,101452.78
2022-09-23T07:03:08.692Z,101441.25
2022-09-23T07:05:10.542Z,101446.53
2022-09-23T07:07:12.223Z,101445.66
2022-09-23T07:09:14.156Z,101453.00
2022-09-23T07:11:16.511Z,101449.53
2022-09-23T07:13:18.184Z,101450.34
2022-09-23T07:15:19.972Z,101459.16
2022-09-23T07:17:21.723Z,101457.94
2022-09-23T07:19:23.510Z,101452.94
2022-09-23T07:21:25.341Z,101451.00
2022-09-23T07:23:27.320Z,101453.59
2022-09-23T07:25:28.991Z,101452.50
2022-09-23T07:27:30.734Z,101451.56
2022-09-23T07:29:43.254Z,101452.91
2022-09-23T07:31:49.106Z,101452.31
2022-09-23T07:33:57.321Z,101460.00
2022-09-23T07:35:59.030Z,101459.63
2022-09-23T07:38:00.933Z,101453.50
2022-09-23T07:40:02.743Z,101457.97
2022-09-23T07:42:04.625Z,101463.97
2022-09-23T07:44:06.404Z,101461.44
2022-09-23T07:46:11.195Z,101469.38
2022-09-23T07:48:12.965Z,101466.00
2022-09-23T07:50:14.687Z,101462.63
2022-09-23T07:52:16.458Z,101465.75
2022-09-23T07:54:18.722Z,101459.63
2022-09-23T07:56:24.274Z,101465.47
2022-09-23T07:58:26.289Z,101459.56
2022-09-23T08:00:27.996Z,101462.22
2022-09-23T08:02:30.085Z,101457.09
2022-09-23T08:04:32.784Z,101455.94
2022-09-23T08:06:35.166Z,101458.09
2022-09-23T08:08:37.444Z,101450.34
2022-09-23T08:10:39.169Z,101457.44
2022-09-23T08:12:41.064Z,101450.25
2022-09-23T08:14:43.132Z,101447.75
2022-09-23T08:16:45.977Z,101449.09
2022-09-23T08:18:47.887Z,101447.81
2022-09-23T08:20:49.763Z,101449.28
2022-09-23T08:22:51.447Z,101441.66
2022-09-23T08:24:55.735Z,101448.78
2022-09-23T08:26:58.761Z,101440.84
2022-09-23T08:29:01.467Z,101445.03
2022-09-23T08:31:03.543Z,101429.88
2022-09-23T08:33:05.376Z,101436.06
2022-09-23T08:35:07.389Z,101425.97
2022-09-23T08:37:12.985Z,101440.34
2022-09-23T08:39:16.347Z,101426.47
2022-09-23T08:41:43.844Z,101424.13
2022-09-23T08:43:54.812Z,101417.72
2022-09-23T08:46:04.245Z,101419.78
2022-09-23T08:48:13.318Z,101423.75
2022-09-23T08:50:22.087Z,101421.91
2022-09-23T08:52:33.271Z,101416.94
2022-09-23T08:54:35.008Z,101418.31
2022-09-23T08:56:38.486Z,101413.66
2022-09-23T08:58:54.145Z,101409.88
2022-09-23T09:01:34.792Z,101404.97
2022-09-23T09:04:01.807Z,101407.16
2022-09-23T09:06:03.998Z,101401.38
2022-09-23T09:08:06.044Z,101398.22
2022-09-23T09:10:22.025Z,101401.84
2022-09-23T09:12:45.199Z,101397.53
2022-09-23T09:15:11.666Z,101402.31
2022-09-23T09:17:24.384Z,101398.41
2022-09-23T09:19:50.103Z,101393.75
2022-09-23T09:21:54.013Z,101394.53
2022-09-23T09:23:58.238Z,101388.75
2022-09-23T09:26:02.165Z,101377.78
2022-09-23T09:28:13.648Z,101377.09
2022-09-23T09:30:17.310Z,101366.13
2022-09-23T09:32:31.946Z,101373.34
2022-09-23T09:35:04.078Z,101372.56
2022-09-23T09:37:32.499Z,101371.53
2022-09-23T09:39:35.239Z,101374.75
2022-09-23T09:41:40.443Z,101377.28
2022-09-23T09:43:45.440Z,101375.97
2022-09-23T09:46:31.333Z,101371.75
2022-09-23T09:48:40.214Z,101373.22
2022-09-23T09:50:50.024Z,101370.91
2022-09-23T09:52:53.278Z,101365.75
2022-09-23T09:54:56.845Z,101362.31
2022-09-23T09:56:58.410Z,101356.19
2022-09-23T09:59:08.372Z,101359.00
2022-09-23T10:01:28.901Z,101361.19
2022-09-23T10:03:34.926Z,101357.22
2022-09-23T10:05:56.918Z,101356.81
2022-09-23T10:08:36.655Z,101353.81
2022-09-23T10:10:38.370Z,101355.84
2022-09-23T10:12:49.612Z,101348.16
2022-09-23T10:14:56.755Z,101345.47
2022-09-23T10:17:04.388Z,101346.34
2022-09-23T10:19:34.499Z,101349.47
2022-09-23T10:21:38.457Z,101350.91
2022-09-23T10:23:49.840Z,101344.41
2022-09-23T10:26:03.456Z,101345.13
2022-09-23T10:28:31.280Z,101340.03
2022-09-23T10:30:33.008Z,101341.53
2022-09-23T10:32:44.753Z,101338.28
2022-09-23T10:34:52.339Z,101333.19
2022-09-23T10:37:13.894Z,101317.56
2022-09-23T10:39:15.754Z,101329.59
2022-09-23T10:41:43.631Z,101331.34
2022-09-23T10:44:07.975Z,101326.75
2022-09-23T10:46:28.230Z,101334.38
2022-09-23T10:49:01.404Z,101329.53
2022-09-23T10:51:25.985Z,101328.66
2022-09-23T10:53:30.903Z,101333.75
2022-09-23T10:55:53.821Z,101338.91
2022-09-23T10:58:24.925Z,101335.19
2022-09-23T11:00:35.819Z,101324.06
2022-09-23T11:02:53.892Z,101336.59
2022-09-23T11:05:15.767Z,101329.94
2022-09-23T11:07:35.046Z,101329.25
2022-09-23T11:10:00.030Z,101325.81
2022-09-23T11:12:29.669Z,101327.03
2022-09-23T11:15:12.921Z,101315.81
2022-09-23T11:17:47.791Z,101322.34
2022-09-23T11:20:08.705Z,101320.63
2022-09-23T11:22:34.500Z,101315.13
2022-09-23T11:24:58.175Z,101315.38
2022-09-23T11:27:16.675Z,101312.34
2022-09-23T11:29:33.595Z,101309.22
2022-09-23T11:31:38.318Z,101307.63
2022-09-23T11:34:24.425Z,101307.03
2022-09-23T11:36:44.549Z,101306.19
2022-09-23T11:38:52.350Z,101304.66
2022-09-23T11:41:03.983Z,101295.25
2022-09-23T11:43:20.978Z,101293.47
2022-09-23T11:45:32.250Z,101294.88
2022-09-23T11:47:42.079Z,101292.91
2022-09-23T11:49:54.374Z,101290.91
2022-09-23T11:51:58.878Z,101289.47
2022-09-23T11:54:12.415Z,101286.47
2022-09-23T11:56:35.371Z,101284.72
2022-09-23T11:59:05.516Z,101286.03
2022-09-23T12:01:25.294Z,101292.03
2022-09-23T12:03:53.444Z,101294.03
2022-09-23T12:06:05.136Z,101285.22
2022-09-23T12:08:24.393Z,101278.97
2022-09-23T12:10:44.415Z,101286.69
2022-09-23T12:13:05.205Z,101284.84
2022-09-23T12:15:38.941Z,101276.94
2022-09-23T12:17:59.445Z,101281.25
2022-09-23T12:20:28.759Z,101271.75
2022-09-23T12:22:55.115Z,101263.28
2022-09-23T12:25:23.587Z,101267.53
2022-09-23T12:27:39.544Z,101251.81
2022-09-23T12:29:41.629Z,101263.06
2022-09-23T12:31:45.346Z,101264.50
2022-09-23T12:33:54.328Z,101253.34
2022-09-23T12:36:07.033Z,101257.00
2022-09-23T12:38:19.505Z,101257.97
2022-09-23T12:40:29.256Z,101246.28
2022-09-23T12:42:31.546Z,101258.97
2022-09-23T12:44:41.682Z,101261.34
2022-09-23T12:46:46.724Z,101254.28
2022-09-23T12:49:31.745Z,101254.28
2022-09-23T12:51:35.138Z,101249.22
2022-09-23T12:53:36.821Z,101250.94
2022-09-23T12:55:38.517Z,101254.13
2022-09-23T12:57:40.985Z,101249.41
2022-09-23T12:59:51.865Z,101242.69
2022-09-23T13:01:54.192Z,101249.41
2022-09-23T13:03:58.600Z,101235.91
2022-09-23T13:06:01.947Z,101236.41
2022-09-23T13:08:13.651Z,101222.41
2022-09-23T13:10:27.231Z,101237.91
2022-09-23T13:12:32.549Z,101241.09
2022-09-23T13:14:35.409Z,101231.38
2022-09-23T13:16:45.179Z,101229.56
2022-09-23T13:18:55.027Z,101228.88
2022-09-23T13:20:56.732Z,101222.25
2022-09-23T13:23:16.891Z,101215.38
2022-09-23T13:25:35.233Z,101218.38
2022-09-23T13:27:37.177Z,101216.22
2022-09-23T13:29:45.248Z,101209.72
2022-09-23T13:31:47.575Z,101207.47
2022-09-23T13:33:56.694Z,101207.44
2022-09-23T13:36:01.650Z,101204.78
2022-09-23T13:38:21.973Z,101193.41
2022-09-23T13:40:30.515Z,101203.09
2022-09-23T13:42:32.745Z,101192.78
2022-09-23T13:44:34.621Z,101196.28
2022-09-23T13:46:43.471Z,101187.78
2022-09-23T13:48:47.485Z,101181.63
2022-09-23T13:50:51.746Z,101182.63
2022-09-23T13:53:00.900Z,101186.66
2022-09-23T13:55:02.619Z,101188.13
2022-09-23T13:57:04.569Z,101182.16
2022-09-23T13:59:41.264Z,101175.28
2022-09-23T14:01:43.344Z,101170.63
2022-09-23T14:03:45.030Z,101164.06
2022-09-23T14:05:47.576Z,101172.28
2022-09-23T14:07:51.479Z,101160.09
2022-09-23T14:09:55.775Z,101161.75
2022-09-23T14:12:00.079Z,101166.28
2022-09-23T14:14:04.058Z,101165.44
2022-09-23T14:16:09.855Z,101162.56
2022-09-23T14:18:25.697Z,101166.38
2022-09-23T14:20:27.392Z,101165.22
2022-09-23T14:22:30.500Z,101156.00
2022-09-23T14:24:34.501Z,101165.03
2022-09-23T14:26:38.092Z,101156.84
2022-09-23T14:28:39.906Z,101159.88
2022-09-23T14:30:42.214Z,101152.50
2022-09-23T14:32:44.488Z,101160.34
2022-09-23T14:35:01.717Z,101153.38
2022-09-23T14:37:29.004Z,101158.38
2022-09-23T14:39:30.759Z,101151.84
2022-09-23T14:41:36.699Z,101154.53
2022-09-23T14:43:38.394Z,101149.53
2022-09-23T14:45:41.600Z,101146.03
2022-09-23T14:47:57.914Z,101143.03
2022-09-23T14:49:59.883Z,101138.53
2022-09-23T14:52:06.129Z,101138.50
2022-09-23T14:54:34.607Z,101139.13
2022-09-23T14:56:41.778Z,101134.97
2022-09-23T14:58:56.969Z,101139.63
2022-09-23T15:01:00.972Z,101136.28
2022-09-23T15:03:11.663Z,101133.63
2022-09-23T15:05:21.868Z,101127.13
2022-09-23T15:07:27.191Z,101143.63
2022-09-23T15:09:39.718Z,101132.44
2022-09-23T15:11:41.673Z,101131.03
2022-09-23T15:13:46.787Z,101131.84
2022-09-23T15:15:51.351Z,101135.28
2022-09-23T15:17:53.654Z,101130.31
2022-09-23T15:20:09.051Z,101127.84
2022-09-23T15:22:11.102Z,101131.81
2022-09-23T15:24:36.074Z,101131.50
2022-09-23T15:26:50.068Z,101131.00
2022-09-23T15:28:52.344Z,101125.03
2022-09-23T15:30:54.480Z,101130.31
2022-09-23T15:32:56.260Z,101123.78
2022-09-23T15:34:57.962Z,101118.59
2022-09-23T15:36:59.713Z,101128.13
2022-09-23T15:39:06.855Z,101124.69
2022-09-23T15:41:08.619Z,101121.41
2022-09-23T15:43:21.104Z,101120.94
2022-09-23T15:45:36.494Z,101119.22
2022-09-23T15:47:38.255Z,101121.56
2022-09-23T15:49:40.103Z,101109.38
2022-09-23T15:51:42.134Z,101117.34
2022-09-23T15:53:43.824Z,101117.31
2022-09-23T15:55:45.715Z,101102.22
2022-09-23T15:57:47.591Z,101119.09
2022-09-23T15:59:49.372Z,101122.91
2022-09-23T16:01:52.769Z,101120.47
2022-09-23T16:03:54.842Z,101119.44
2022-09-23T16:05:59.031Z,101122.03
2022-09-23T16:08:04.881Z,101125.31
2022-09-23T16:10:09.815Z,101124.41
2022-09-23T16:12:12.339Z,101118.56
2022-09-23T16:14:16.371Z,101131.56
2022-09-23T16:16:19.140Z,101126.56
2022-09-23T16:18:20.876Z,101123.78
2022-09-23T16:20:23.760Z,101113.09
2022-09-23T16:22:25.887Z,101127.94
2022-09-23T16:24:28.406Z,101129.06
2022-09-23T16:26:33.337Z,101121.97
2022-09-23T16:28:35.198Z,101118.31
2022-09-23T16:30:37.111Z,101103.31
2022-09-23T16:32:40.227Z,101118.44
2022-09-23T16:34:42.069Z,101110.88
2022-09-23T16:36:43.843Z,101108.56
2022-09-23T16:38:45.744Z,101116.13
2022-09-23T16:40:56.054Z,101120.41
2022-09-23T16:42:57.836Z,101115.81
2022-09-23T16:44:59.742Z,101122.69
2022-09-23T16:47:01.625Z,101115.06
2022-09-23T16:49:03.848Z,101123.03
2022-09-23T16:51:06.290Z,101122.50
2022-09-23T16:53:07.987Z,101130.47
2022-09-23T16:55:13.590Z,101120.97
2022-09-23T16:57:15.335Z,101122.13
2022-09-23T16:59:17.067Z,101124.91
2022-09-23T17:01:26.913Z,101128.25
2022-09-23T17:03:28.764Z,101120.97
2022-09-23T17:05:30.644Z,101119.56
2022-09-23T17:07:32.380Z,101123.75
2022-09-23T17:09:34.085Z,101129.72
2022-09-23T17:11:35.924Z,101126.22
2022-09-23T17:13:38.077Z,101126.06
2022-09-23T17:15:41.227Z,101123.50
2022-09-23T17:17:42.967Z,101125.16
2022-09-23T17:19:44.714Z,101126.06
2022-09-23T17:21:46.545Z,101121.44
2022-09-23T17:23:48.373Z,101132.00
2022-09-23T17:25:50.081Z,101132.00
2022-09-23T17:27:52.397Z,101121.94
2022-09-23T17:29:54.270Z,101126.34
2022-09-23T17:31:56.226Z,101131.78
2022-09-23T17:33:58.424Z,101132.88
2022-09-23T17:36:00.343Z,101105.19
2022-09-23T17:38:02.155Z,101132.03
2022-09-23T17:40:05.040Z,101136.19
2022-09-23T17:42:06.889Z,101137.25
2022-09-23T17:44:10.614Z,101139.88
2022-09-23T17:46:13.718Z,101137.00
2022-09-23T17:48:16.147Z,101135.16
2022-09-23T17:50:18.148Z,101128.31
2022-09-23T17:52:20.005Z,101131.09
2022-09-23T17:54:21.907Z,101128.44
2022-09-23T17:56:25.780Z,101133.03
2022-09-23T17:58:29.728Z,101132.31
2022-09-23T18:00:31.587Z,101131.41
2022-09-23T18:02:33.366Z,101130.09
2022-09-23T18:04:35.194Z,101137.91
2022-09-23T18:06:38.199Z,101136.00
2022-09-23T18:08:42.062Z,101128.59
2022-09-23T18:10:44.318Z,101139.28
2022-09-23T18:12:46.102Z,101133.03
2022-09-23T18:14:48.712Z,101139.75
2022-09-23T18:16:53.227Z,101139.75
2022-09-23T18:18:58.363Z,101143.75
2022-09-23T18:21:04.518Z,101139.28
2022-09-23T18:23:06.488Z,101136.28
2022-09-23T18:25:28.502Z,101134.47
2022-09-23T18:27:33.357Z,101141.84
2022-09-23T18:29:35.305Z,101140.59
2022-09-23T18:31:37.877Z,101144.47
2022-09-23T18:33:40.385Z,101137.66
2022-09-23T18:35:42.253Z,101137.75
2022-09-23T18:37:44.168Z,101140.28
2022-09-23T18:39:45.843Z,101138.47
2022-09-23T18:41:47.822Z,101145.41
2022-09-23T18:43:50.448Z,101138.97
2022-09-23T18:46:00.156Z,101142.91
2022-09-23T18:48:02.462Z,101143.25
2022-09-23T18:50:04.572Z,101145.19
2022-09-23T18:52:06.282Z,101138.69
2022-09-23T18:54:08.239Z,101120.66
2022-09-23T18:56:13.448Z,101135.81
2022-09-23T18:58:15.157Z,101143.00
2022-09-23T19:00:17.020Z,101145.63
2022-09-23T19:02:19.839Z,101148.84
2022-09-23T19:04:22.540Z,101130.97
2022-09-23T19:06:25.127Z,101142.00
2022-09-23T19:08:27.443Z,101139.63
2022-09-23T19:10:29.139Z,101141.31
2022-09-23T19:12:30.989Z,101141.16
2022-09-23T19:14:32.783Z,101142.00
2022-09-23T19:16:35.640Z,101143.44
2022-09-23T19:18:39.576Z,101143.78
2022-09-23T19:20:54.582Z,101143.06
2022-09-23T19:22:56.327Z,101139.81
2022-09-23T19:24:58.119Z,101143.69
2022-09-23T19:26:59.981Z,101140.69
2022-09-23T19:29:02.478Z,101129.28
2022-09-23T19:31:10.601Z,101149.41
2022-09-23T19:33:12.366Z,101139.53
2022-09-23T19:35:14.491Z,101137.88
2022-09-23T19:37:16.407Z,101142.75
2022-09-23T19:39:23.140Z,101132.28
2022-09-23T19:41:26.518Z,101142.88
2022-09-23T19:43:28.384Z,101144.78
2022-09-23T19:45:30.096Z,101145.75
2022-09-23T19:47:32.157Z,101147.25
2022-09-23T19:49:34.028Z,101149.91
2022-09-23T19:51:35.832Z,101144.63
2022-09-23T19:53:37.662Z,101141.25
2022-09-23T19:55:40.438Z,101143.59
2022-09-23T19:57:42.184Z,101139.16
2022-09-23T19:59:44.130Z,101141.25
2022-09-23T20:01:45.951Z,101136.25
2022-09-23T20:03:48.064Z,101126.13
2022-09-23T20:05:56.909Z,101132.63
2022-09-23T20:07:58.795Z,101135.50
2022-09-23T20:10:00.500Z,101139.31
2022-09-23T20:12:02.479Z,101140.88
2022-09-23T20:14:05.010Z,101140.25
2022-09-23T20:16:07.874Z,101140.03
2022-09-23T20:18:09.865Z,101131.41
2022-09-23T20:20:13.443Z,101139.19
2022-09-23T20:22:15.162Z,101138.81
2022-09-23T20:24:17.021Z,101140.25
2022-09-23T20:26:18.849Z,101136.56
2022-09-23T20:28:20.699Z,101134.88
2022-09-23T20:30:22.574Z,101135.63
2022-09-23T20:32:25.047Z,101136.94
2022-09-23T20:34:26.877Z,101138.00
2022-09-23T20:36:29.731Z,101137.28
2022-09-23T20:38:31.619Z,101140.22
2022-09-23T20:40:33.398Z,101139.63
2022-09-23T20:42:35.529Z,101134.00
2022-09-23T20:44:37.403Z,101124.75
2022-09-23T20:46:41.965Z,101125.91
2022-09-23T20:48:47.139Z,101131.94
2022-09-23T20:50:49.603Z,101128.16
2022-09-23T20:52:52.442Z,101129.66
2022-09-23T20:54:54.372Z,101130.59
2022-09-23T20:56:56.153Z,101133.47
2022-09-23T20:59:01.830Z,101129.44
2022-09-23T21:01:08.401Z,101138.31
2022-09-23T21:03:11.455Z,101135.66
2022-09-23T21:05:13.290Z,101134.13
2022-09-23T21:07:15.034Z,101136.50
2022-09-23T21:09:18.056Z,101133.69
2022-09-23T21:11:19.860Z,101135.22
2022-09-23T21:13:21.699Z,101131.75
2022-09-23T21:15:26.041Z,101135.91
2022-09-23T21:17:27.779Z,101130.41
2022-09-23T21:19:29.464Z,101095.78
2022-09-23T21:21:31.243Z,101128.84
2022-09-23T21:23:35.684Z,101135.81
2022-09-23T21:25:37.433Z,101135.06
2022-09-23T21:27:39.261Z,101130.91
2022-09-23T21:29:40.996Z,101133.03
2022-09-23T21:31:42.902Z,101131.69
2022-09-23T21:33:44.770Z,101130.00
2022-09-23T21:35:46.481Z,101125.16
2022-09-23T21:37:48.403Z,101132.41
2022-09-23T21:39:50.266Z,101127.16
2022-09-23T21:41:51.971Z,101121.16
2022-09-23T21:43:54.513Z,101118.31
2022-09-23T21:46:01.484Z,101114.31
2022-09-23T21:48:04.742Z,101114.19
2022-09-23T21:50:07.222Z,101110.00
2022-09-23T21:52:09.178Z,101110.84
2022-09-23T21:54:17.154Z,101107.25
2022-09-23T21:56:31.102Z,101110.00
2022-09-23T21:58:35.128Z,101102.75
2022-09-23T22:00:36.870Z,101106.75
2022-09-23T22:02:38.691Z,101108.84
2022-09-23T22:04:40.575Z,101102.13
2022-09-23T22:06:42.418Z,101109.16
2022-09-23T22:08:44.148Z,101108.63
2022-09-23T22:10:46.158Z,101102.13
2022-09-23T22:12:48.450Z,101101.78
2022-09-23T22:14:50.307Z,101097.88
2022-09-23T22:16:53.868Z,101106.75
2022-09-23T22:18:57.642Z,101106.09
2022-09-23T22:20:59.377Z,101110.22
2022-09-23T22:23:01.896Z,101101.28
2022-09-23T22:25:03.761Z,101101.28
2022-09-23T22:27:07.798Z,101099.88
2022-09-23T22:29:13.093Z,101101.56
2022-09-23T22:31:14.827Z,101095.47
2022-09-23T22:33:16.679Z,101093.25
2022-09-23T22:35:18.937Z,101085.81
2022-09-23T22:37:25.228Z,101092.22
2022-09-23T22:39:29.276Z,101088.66
2022-09-23T22:41:31.509Z,101094.72
2022-09-23T22:43:33.261Z,101098.19
2022-09-23T22:45:35.062Z,101091.16
2022-09-23T22:47:39.779Z,101086.75
2022-09-23T22:49:41.463Z,101082.75
2022-09-23T22:51:43.238Z,101082.44
2022-09-23T22:53:44.977Z,101076.97
2022-09-23T22:55:57.430Z,101056.88
2022-09-23T22:58:10.410Z,101075.78
2022-09-23T23:00:21.083Z,101075.09
2022-09-23T23:02:22.782Z,101076.44
2022-09-23T23:04:24.484Z,101077.69
2022-09-23T23:06:26.389Z,101075.81
2022-09-23T23:08:29.350Z,101082.97
2022-09-23T23:10:31.308Z,101073.50
2022-09-23T23:12:33.341Z,101078.22
2022-09-23T23:14:37.923Z,101082.09
2022-09-23T23:16:40.698Z,101085.81
2022-09-23T23:18:43.668Z,101085.81
2022-09-23T23:20:45.517Z,101087.59
2022-09-23T23:22:47.404Z,101073.41
2022-09-23T23:24:50.302Z,101080.44
2022-09-23T23:26:52.670Z,101080.88
2022-09-23T23:28:55.318Z,101084.34
2022-09-23T23:31:03.476Z,101078.53
2022-09-23T23:33:05.598Z,101076.63
2022-09-23T23:35:08.014Z,101080.63
2022-09-23T23:37:09.947Z,101081.25
2022-09-23T23:39:13.823Z,101074.63
2022-09-23T23:41:16.964Z,101080.72
2022-09-23T23:43:19.906Z,101068.22
2022-09-23T23:45:22.013Z,101088.34
2022-09-23T23:47:24.143Z,101081.38
2022-09-23T23:49:26.749Z,101089.28
2022-09-23T23:51:30.254Z,101080.31
2022-09-23T23:53:35.621Z,101076.22
2022-09-23T23:55:39.004Z,101065.59
2022-09-23T23:57:42.830Z,101073.69
2022-09-23T23:59:44.605Z,101071.19
